Time;durP1;ratioP1;P1;durP2;ratioP2;P2;SDS_P1;SDS_P2;PMS_P1;PMS_P2;Temp;Humidity;BMP_temperature;BMP_pressure;BME280_temperature;BME280_humidity;BME280_pressure;Samples;Min_cycle;Max_cycle;Signal;HPM_P1;HPM_P2
2023/06/28 00:01:37;;;;;;;2.28;1.30;;;;;;;20.18;80.65;100037.13;5012133;28;20239;-78
2023/06/28 00:04:04;;;;;;;4.13;1.75;;;;;;;20.21;80.49;100051.31;5012025;28;20223;-79
2023/06/28 00:06:32;;;;;;;3.17;1.75;;;;;;;20.16;82.72;100071.22;5015753;28;20238;-78
2023/06/28 00:08:58;;;;;;;5.43;1.65;;;;;;;20.10;86.79;100120.63;5002883;28;20227;-79
2023/06/28 00:11:27;;;;;;;3.05;1.42;;;;;;;20.10;85.28;100112.56;4992653;28;20231;-79
2023/06/28 00:13:53;;;;;;;3.15;1.52;;;;;;;20.10;84.03;100091.97;5002444;28;20247;-80
2023/06/28 00:16:20;;;;;;;6.50;2.10;;;;;;;20.07;84.25;100094.78;4997820;28;20244;-79
2023/06/28 00:18:47;;;;;;;3.15;1.40;;;;;;;20.10;82.43;100080.38;5011705;28;20247;-80
2023/06/28 00:21:14;;;;;;;8.40;2.75;;;;;;;20.13;82.80;100093.69;4998663;28;20653;-78
2023/06/28 00:23:42;;;;;;;2.33;1.30;;;;;;;20.05;83.74;100091.25;5001388;28;20375;-78
2023/06/28 00:26:09;;;;;;;8.55;3.10;;;;;;;20.07;83.33;100093.91;4998772;28;20238;-79
2023/06/28 00:28:36;;;;;;;2.92;1.50;;;;;;;20.06;84.26;100109.13;4999048;28;20231;-79
2023/06/28 00:31:03;;;;;;;3.78;1.73;;;;;;;19.98;84.73;100113.88;5013734;28;20227;-78
2023/06/28 00:33:31;;;;;;;3.15;1.70;;;;;;;19.99;85.74;100125.50;5011931;28;20613;-79
2023/06/28 00:35:58;;;;;;;2.17;1.38;;;;;;;19.96;86.29;100136.34;5008305;28;20224;-78
2023/06/28 00:38:25;;;;;;;2.20;1.30;;;;;;;19.79;90.62;100171.78;5007953;28;20228;-79
2023/06/28 00:40:52;;;;;;;1.60;1.00;;;;;;;19.71;95.48;100222.13;5006818;28;20253;-79
2023/06/28 00:43:19;;;;;;;7.55;2.97;;;;;;;19.75;98.98;100266.72;5006549;28;20235;-80
2023/06/28 00:45:46;;;;;;;2.78;1.60;;;;;;;19.64;100.00;100298.38;5013811;28;20246;-79
2023/06/28 00:48:13;;;;;;;4.90;2.08;;;;;;;19.39;100.00;100335.69;5013701;28;20991;-79
2023/06/28 00:50:41;;;;;;;2.65;1.45;;;;;;;19.41;100.00;100396.41;5000541;28;20771;-79
2023/06/28 00:53:08;;;;;;;8.35;3.22;;;;;;;19.44;100.00;100399.00;5012509;28;20227;-79
2023/06/28 00:55:35;;;;;;;2.38;1.35;;;;;;;19.41;100.00;100439.31;5007686;28;20251;-79
2023/06/28 00:58:03;;;;;;;5.90;2.72;;;;;;;19.28;100.00;100418.25;4998848;28;20309;-79
2023/06/28 01:00:30;;;;;;;2.83;1.35;;;;;;;19.26;100.00;100439.75;5000866;28;20243;-78
2023/06/28 01:02:57;;;;;;;3.80;1.77;;;;;;;19.14;100.00;100465.06;5016595;28;20314;-79
2023/06/28 01:05:24;;;;;;;3.78;1.70;;;;;;;19.06;100.00;100499.22;4985348;28;20326;-79
2023/06/28 01:07:52;;;;;;;2.58;1.98;;;;;;;18.97;100.00;100520.88;5009488;28;20231;-80
2023/06/28 01:10:19;;;;;;;28.05;6.65;;;;;;;18.93;100.00;100518.31;4993985;28;20235;-80
2023/06/28 01:12:47;;;;;;;3.00;1.55;;;;;;;18.83;100.00;100537.28;4991189;28;20318;-78
2023/06/28 01:15:15;;;;;;;19.10;4.38;;;;;;;18.79;100.00;100557.03;5007488;28;20223;-79
2023/06/28 01:17:42;;;;;;;2.38;1.33;;;;;;;18.82;100.00;100553.41;4997948;28;20236;-79
2023/06/28 01:20:09;;;;;;;33.88;7.18;;;;;;;18.74;100.00;100564.28;4999116;28;20238;-79
2023/06/28 01:22:40;;;;;;;3.60;1.90;;;;;;;18.62;100.00;100555.66;4999333;28;20231;-79
2023/06/28 01:25:09;;;;;;;26.10;5.97;;;;;;;18.63;100.00;100560.09;4983635;28;20702;-81
2023/06/28 01:27:40;;;;;;;3.58;1.77;;;;;;;18.69;100.00;100568.88;4998229;28;20305;-79
2023/06/28 01:30:07;;;;;;;14.98;4.07;;;;;;;18.69;100.00;100573.34;5006432;28;20224;-79
2023/06/28 01:32:34;;;;;;;3.05;1.65;;;;;;;18.66;100.00;100571.63;5010343;28;20692;-78
2023/06/28 01:35:01;;;;;;;2.67;1.42;;;;;;;18.64;100.00;100584.16;5010139;28;20226;-79
2023/06/28 01:37:28;;;;;;;2.55;1.30;;;;;;;18.58;100.00;100586.94;5004876;28;20235;-78
2023/06/28 01:39:54;;;;;;;2.97;1.67;;;;;;;18.54;100.00;100615.59;5016654;28;20233;-79
2023/06/28 01:42:21;;;;;;;2.15;1.27;;;;;;;18.45;100.00;100630.97;4987093;28;21302;-79
2023/06/28 01:44:48;;;;;;;3.03;1.48;;;;;;;18.46;100.00;100624.69;5005391;28;20250;-79
2023/06/28 01:47:15;;;;;;;31.45;7.25;;;;;;;18.41;100.00;100638.19;5006668;28;20680;-80
2023/06/28 01:49:51;;;;;;;3.22;1.52;;;;;;;18.47;100.00;100672.00;5014880;28;20234;-80
2023/06/28 01:52:18;;;;;;;24.20;6.60;;;;;;;18.34;100.00;100686.53;4999228;28;20322;-78
2023/06/28 01:54:44;;;;;;;2.30;1.30;;;;;;;18.33;100.00;100711.53;4991335;28;20239;-78
2023/06/28 01:57:11;;;;;;;29.90;7.85;;;;;;;18.25;100.00;100697.41;5011853;28;20717;-77
2023/06/28 01:59:38;;;;;;;3.67;1.92;;;;;;;18.21;100.00;100720.66;5003773;28;20242;-78
2023/06/28 02:02:05;;;;;;;18.20;5.13;;;;;;;18.31;100.00;100748.16;5003907;28;20227;-78
2023/06/28 02:04:32;;;;;;;3.55;2.00;;;;;;;18.10;100.00;100765.44;5001365;28;20235;-77
2023/06/28 02:06:58;;;;;;;2.47;1.50;;;;;;;18.06;100.00;100774.44;5002777;28;20319;-77
2023/06/28 02:09:25;;;;;;;2.97;1.67;;;;;;;17.98;100.00;100774.56;5001623;28;20231;-78
2023/06/28 02:11:52;;;;;;;2.28;1.20;;;;;;;17.96;100.00;100771.00;5003283;28;20224;-77
2023/06/28 02:14:18;;;;;;;7.22;3.88;;;;;;;18.07;100.00;100776.19;5022742;23;20242;-76
2023/06/28 02:16:45;;;;;;;3.25;1.63;;;;;;;17.98;100.00;100792.41;4983253;28;20233;-77
2023/06/28 02:19:12;;;;;;;4.93;2.25;;;;;;;17.92;100.00;100802.28;4978485;28;20260;-77
2023/06/28 02:21:42;;;;;;;2.70;1.85;;;;;;;17.92;100.00;100810.31;4981483;28;20232;-76
2023/06/28 02:24:08;;;;;;;4.03;1.85;;;;;;;17.86;100.00;100831.81;4986246;28;20256;-76
2023/06/28 02:26:35;;;;;;;2.35;1.52;;;;;;;17.66;100.00;100862.38;4982791;28;20232;-77
2023/06/28 02:29:02;;;;;;;2.35;1.65;;;;;;;17.53;100.00;100869.69;4976894;28;20229;-76
2023/06/28 02:31:29;;;;;;;2.35;1.65;;;;;;;17.46;100.00;100889.38;4980135;28;20232;-75
2023/06/28 02:33:56;;;;;;;2.85;1.80;;;;;;;17.52;100.00;100895.53;4978631;28;20236;-75
2023/06/28 02:36:23;;;;;;;2.33;1.70;;;;;;;17.47;100.00;100883.13;4980852;28;20235;-76
2023/06/28 02:38:50;;;;;;;2.30;1.40;;;;;;;17.46;100.00;100900.09;4981576;28;20224;-75
2023/06/28 02:41:17;;;;;;;4.45;2.00;;;;;;;17.46;100.00;100917.00;4983292;28;20220;-76
2023/06/28 02:43:44;;;;;;;2.47;1.50;;;;;;;17.43;100.00;100909.03;4982882;28;20700;-73
2023/06/28 02:46:11;;;;;;;5.25;2.00;;;;;;;17.47;100.00;100917.88;4977407;28;20236;-73
2023/06/28 02:48:38;;;;;;;2.00;1.40;;;;;;;17.44;100.00;100932.19;4981450;28;20323;-72
2023/06/28 02:51:05;;;;;;;5.45;2.35;;;;;;;17.44;100.00;100950.91;4976208;28;20232;-72
2023/06/28 02:53:32;;;;;;;2.42;1.55;;;;;;;17.46;100.00;100948.22;4982142;28;20247;-72
2023/06/28 02:55:59;;;;;;;2.67;1.50;;;;;;;17.52;100.00;100951.69;4978156;28;20239;-72
2023/06/28 02:58:27;;;;;;;2.35;1.50;;;;;;;17.43;100.00;100951.81;4986219;28;20244;-77
2023/06/28 03:00:54;;;;;;;2.40;1.45;;;;;;;17.43;100.00;100969.63;4978187;28;20243;-75
2023/06/28 03:03:22;;;;;;;5.43;2.00;;;;;;;17.49;100.00;100986.50;4972795;28;20252;-74
2023/06/28 03:05:49;;;;;;;2.42;1.60;;;;;;;17.47;100.00;100996.31;4974684;28;20307;-75
2023/06/28 03:08:16;;;;;;;4.30;2.13;;;;;;;17.52;100.00;101001.63;4960627;28;20311;-74
2023/06/28 03:10:44;;;;;;;2.60;1.45;;;;;;;17.54;100.00;101007.84;4992719;28;20228;-75
2023/06/28 03:13:11;;;;;;;4.28;2.05;;;;;;;17.53;100.00;100985.56;4976973;28;20232;-75
2023/06/28 03:15:41;;;;;;;2.72;1.55;;;;;;;17.54;100.00;100999.81;4971192;28;20233;-75
2023/06/28 03:18:08;;;;;;;5.68;2.25;;;;;;;17.63;100.00;101018.44;4981712;28;20225;-74
2023/06/28 03:20:35;;;;;;;2.70;1.52;;;;;;;17.66;100.00;101015.78;4981692;28;20239;-75
2023/06/28 03:23:03;;;;;;;3.42;1.90;;;;;;;17.67;100.00;101033.59;4968618;28;20291;-83
2023/06/28 03:25:30;;;;;;;3.40;1.90;;;;;;;17.74;100.00;101029.06;4974815;28;20259;-74
2023/06/28 03:27:57;;;;;;;3.67;2.17;;;;;;;17.76;100.00;100987.13;4979844;28;20232;-75
2023/06/28 03:30:24;;;;;;;3.22;1.70;;;;;;;17.77;100.00;100975.53;4969130;28;20231;-76
2023/06/28 03:32:51;;;;;;;2.53;1.45;;;;;;;17.73;100.00;100984.50;4981858;28;20232;-78
2023/06/28 03:35:18;;;;;;;7.93;3.67;;;;;;;17.74;100.00;100995.16;4975434;28;20223;-74
2023/06/28 03:37:52;;;;;;;2.17;1.40;;;;;;;17.74;100.00;101015.69;4983962;28;20233;-72
2023/06/28 03:40:19;;;;;;;6.15;2.55;;;;;;;17.76;100.00;101003.19;4974462;28;20244;-72
2023/06/28 03:42:47;;;;;;;2.75;1.52;;;;;;;17.80;100.00;101000.44;4981067;28;20231;-72
2023/06/28 03:45:15;;;;;;;6.25;2.75;;;;;;;17.87;100.00;100934.38;4983998;28;20239;-73
2023/06/28 03:47:42;;;;;;;3.42;1.90;;;;;;;17.97;100.00;100898.56;4981147;28;20248;-73
2023/06/28 03:50:09;;;;;;;6.97;2.65;;;;;;;17.96;100.00;100894.09;4978399;28;20232;-72
2023/06/28 03:52:36;;;;;;;3.25;1.83;;;;;;;17.96;100.00;100872.69;4991074;28;20243;-73
2023/06/28 03:55:03;;;;;;;3.08;1.55;;;;;;;17.92;100.00;100871.84;4974606;28;20231;-73
2023/06/28 03:57:30;;;;;;;4.28;2.22;;;;;;;17.95;100.00;100851.31;4976678;28;20237;-72
2023/06/28 03:59:57;;;;;;;3.45;1.95;;;;;;;17.93;100.00;100846.00;4963859;28;20235;-73
2023/06/28 04:02:23;;;;;;;2.80;1.50;;;;;;;18.01;100.00;100820.00;4976278;28;20236;-73
2023/06/28 04:04:50;;;;;;;2.65;1.52;;;;;;;17.86;100.00;100830.94;4988201;28;20236;-73
2023/06/28 04:07:17;;;;;;;6.10;2.42;;;;;;;17.85;100.00;100822.03;4997620;28;20237;-72
2023/06/28 04:09:44;;;;;;;2.70;1.50;;;;;;;17.84;100.00;100830.06;4985992;28;20284;-73
2023/06/28 04:12:11;;;;;;;6.18;2.78;;;;;;;17.80;100.00;100828.34;4978551;28;20308;-72
2023/06/28 04:14:38;;;;;;;2.67;1.38;;;;;;;17.85;100.00;100842.53;4974543;28;20310;-73
2023/06/28 04:17:05;;;;;;;3.25;1.67;;;;;;;17.82;100.00;100861.31;4971806;28;20322;-73
2023/06/28 04:19:32;;;;;;;3.17;1.73;;;;;;;17.78;100.00;100873.84;5005147;28;20240;-73
2023/06/28 04:21:59;;;;;;;2.08;1.27;;;;;;;17.78;100.00;100894.34;5000617;28;20279;-72
2023/06/28 04:24:26;;;;;;;2.55;1.58;;;;;;;17.73;100.00;100886.41;4980524;28;20232;-73
2023/06/28 04:26:52;;;;;;;1.73;1.00;;;;;;;17.84;100.00;100878.22;4985583;28;20247;-73
2023/06/28 04:29:19;;;;;;;6.75;2.58;;;;;;;17.92;100.00;100871.84;4985061;28;20244;-72
2023/06/28 04:31:48;;;;;;;2.33;1.30;;;;;;;17.85;100.00;100888.91;4990717;28;20279;-73
2023/06/28 04:34:16;;;;;;;4.20;1.77;;;;;;;17.87;100.00;100902.25;4980047;28;20236;-73
2023/06/28 04:36:44;;;;;;;3.03;1.67;;;;;;;17.92;100.00;100898.63;4985475;28;20263;-72
2023/06/28 04:39:11;;;;;;;4.68;2.13;;;;;;;17.93;100.00;100902.19;4964631;28;20253;-73
2023/06/28 04:41:37;;;;;;;1.75;1.10;;;;;;;17.97;100.00;100903.03;4984124;28;20594;-73
2023/06/28 04:44:09;;;;;;;4.32;2.00;;;;;;;18.00;100.00;100893.16;4951244;28;20238;-74
2023/06/28 04:46:36;;;;;;;2.65;1.42;;;;;;;18.02;100.00;100871.72;4993911;28;20260;-73
2023/06/28 04:49:03;;;;;;;2.60;1.45;;;;;;;18.06;100.00;100841.34;4982793;28;20240;-74
2023/06/28 04:51:33;;;;;;;3.60;1.98;;;;;;;18.09;100.00;100833.25;4992378;28;20231;-73
2023/06/28 04:54:00;;;;;;;3.08;1.67;;;;;;;18.07;100.00;100819.00;4982923;28;20236;-72
2023/06/28 04:56:28;;;;;;;3.05;1.77;;;;;;;18.10;100.00;100833.25;5000373;28;20884;-72
2023/06/28 04:58:55;;;;;;;1.95;1.17;;;;;;;18.23;100.00;100834.84;4967451;28;20236;-71
2023/06/28 05:01:22;;;;;;;2.47;1.30;;;;;;;18.32;100.00;100862.38;4962958;28;20240;-72
2023/06/28 05:03:48;;;;;;;3.50;1.83;;;;;;;18.26;100.00;100839.25;4987773;28;20236;-72
2023/06/28 05:06:15;;;;;;;4.32;2.05;;;;;;;18.35;100.00;100822.16;4996740;28;20228;-72
2023/06/28 05:08:42;;;;;;;3.53;1.77;;;;;;;18.38;100.00;100817.66;4984991;28;20320;-72
2023/06/28 05:11:09;;;;;;;4.82;2.33;;;;;;;18.22;100.00;100817.00;4997335;28;20226;-72
2023/06/28 05:13:35;;;;;;;4.47;2.90;;;;;;;18.20;100.00;100809.88;4988509;28;20249;-72
2023/06/28 05:16:02;;;;;;;4.40;2.00;;;;;;;18.29;100.00;100827.63;4980409;28;20242;-72
2023/06/28 05:18:29;;;;;;;3.58;1.70;;;;;;;18.26;100.00;100835.72;4998439;28;20232;-72
2023/06/28 05:20:56;;;;;;;5.88;2.58;;;;;;;18.33;100.00;100854.31;4991947;28;20239;-72
2023/06/28 05:23:23;;;;;;;8.70;3.20;;;;;;;18.41;100.00;100855.09;4989558;28;20243;-72
2023/06/28 05:25:50;;;;;;;4.03;1.75;;;;;;;18.42;100.00;100846.13;4993547;28;20232;-72
2023/06/28 05:28:17;;;;;;;11.10;3.58;;;;;;;18.47;100.00;100797.84;4961936;28;20239;-73
2023/06/28 05:30:44;;;;;;;5.32;2.03;;;;;;;18.53;100.00;100805.78;4991143;28;20238;-72
2023/06/28 05:33:11;;;;;;;9.88;3.10;;;;;;;18.54;100.00;100775.41;4979554;28;20299;-72
2023/06/28 05:35:38;;;;;;;5.93;2.30;;;;;;;18.52;100.00;100767.41;4989463;28;20586;-72
2023/06/28 05:38:06;;;;;;;6.25;2.35;;;;;;;18.53;100.00;100766.50;4990058;28;20232;-73
2023/06/28 05:40:33;;;;;;;5.32;2.13;;;;;;;18.52;100.00;100779.91;4980471;28;20601;-73
2023/06/28 05:43:00;;;;;;;4.90;2.08;;;;;;;18.57;100.00;100764.63;4964767;28;20225;-74
2023/06/28 05:45:28;;;;;;;4.55;2.00;;;;;;;18.57;100.00;100802.13;5000820;28;20240;-73
2023/06/28 05:47:56;;;;;;;3.33;1.50;;;;;;;18.55;100.00;100830.75;5003235;28;20278;-73
2023/06/28 05:50:23;;;;;;;4.30;2.20;;;;;;;18.52;100.00;100841.50;4983955;28;20251;-73
2023/06/28 05:52:50;;;;;;;3.95;1.75;;;;;;;18.48;100.00;100839.78;4983826;28;20224;-73
2023/06/28 05:55:17;;;;;;;6.38;2.40;;;;;;;18.52;100.00;100863.81;4977687;28;20235;-73
2023/06/28 05:57:45;;;;;;;3.08;2.25;;;;;;;18.54;100.00;100866.47;4966852;28;20225;-74
2023/06/28 06:00:14;;;;;;;7.78;2.97;;;;;;;18.55;100.00;100866.44;4974920;28;20248;-73
2023/06/28 06:02:40;;;;;;;5.35;2.10;;;;;;;18.54;100.00;100864.69;4984284;28;20251;-73
2023/06/28 06:05:08;;;;;;;8.23;2.78;;;;;;;18.53;100.00;100856.69;4979211;28;20228;-73
2023/06/28 06:07:39;;;;;;;9.85;3.50;;;;;;;18.53;100.00;100870.94;4963845;28;20247;-73
2023/06/28 06:10:09;;;;;;;7.25;2.53;;;;;;;18.53;100.00;100886.13;4979344;28;20275;-73
2023/06/28 06:12:36;;;;;;;5.50;2.13;;;;;;;18.50;100.00;100916.53;4983962;28;20248;-73
2023/06/28 06:15:05;;;;;;;4.57;1.88;;;;;;;18.56;100.00;100907.50;4997458;28;20241;-73
2023/06/28 06:17:32;;;;;;;5.70;2.20;;;;;;;18.57;100.00;100920.00;5001692;28;20314;-73
2023/06/28 06:19:59;;;;;;;5.15;2.13;;;;;;;18.60;100.00;100905.66;5000746;28;20235;-73
2023/06/28 06:22:26;;;;;;;4.47;1.85;;;;;;;18.56;100.00;100886.09;4982787;28;20231;-73
2023/06/28 06:24:53;;;;;;;6.45;2.65;;;;;;;18.61;100.00;100905.69;4981532;28;20641;-73
2023/06/28 06:27:20;;;;;;;5.15;2.22;;;;;;;18.64;100.00;100878.84;4997881;28;24210;-73
2023/06/28 06:29:47;;;;;;;4.63;2.20;;;;;;;18.63;100.00;100879.75;4991169;28;20240;-73
2023/06/28 06:32:13;;;;;;;9.00;3.17;;;;;;;18.64;100.00;100880.63;4985481;28;20236;-74
2023/06/28 06:34:40;;;;;;;5.05;2.20;;;;;;;18.66;100.00;100871.66;4982758;28;20256;-73
2023/06/28 06:37:11;;;;;;;7.43;2.75;;;;;;;18.70;100.00;100885.88;4993849;28;20289;-74
2023/06/28 06:39:39;;;;;;;6.90;2.60;;;;;;;18.76;100.00;100892.03;4968183;28;20231;-73
2023/06/28 06:42:07;;;;;;;8.35;3.08;;;;;;;18.78;100.00;100889.31;4988851;28;20267;-73
2023/06/28 06:44:33;;;;;;;6.63;2.60;;;;;;;18.78;100.00;100884.84;4979401;28;20696;-73
2023/06/28 06:47:01;;;;;;;5.30;2.05;;;;;;;18.87;100.00;100881.13;4993936;28;20239;-73
2023/06/28 06:49:28;;;;;;;6.70;2.60;;;;;;;18.85;100.00;100880.25;4993871;28;20247;-73
2023/06/28 06:51:55;;;;;;;6.97;2.67;;;;;;;18.81;100.00;100870.50;4974311;28;20236;-73
2023/06/28 06:54:21;;;;;;;6.35;2.50;;;;;;;18.86;100.00;100880.22;4923027;28;20253;-73
2023/06/28 06:56:48;;;;;;;6.93;2.63;;;;;;;18.87;100.00;100854.31;4983478;28;20232;-73
2023/06/28 06:59:16;;;;;;;8.00;2.85;;;;;;;18.94;100.00;100829.16;4930965;28;20239;-73
2023/06/28 07:01:43;;;;;;;5.78;2.22;;;;;;;18.98;100.00;100844.28;4973537;28;20243;-73
2023/06/28 07:04:10;;;;;;;8.25;2.95;;;;;;;18.95;100.00;100824.69;4978046;28;20240;-73
2023/06/28 07:06:37;;;;;;;6.38;2.65;;;;;;;19.03;100.00;100829.00;4985830;28;20241;-73
2023/06/28 07:09:03;;;;;;;9.55;3.40;;;;;;;19.09;100.00;100814.59;4982191;28;20231;-73
2023/06/28 07:11:30;;;;;;;6.10;2.72;;;;;;;19.12;100.00;100811.84;4949328;28;20232;-73
2023/06/28 07:13:57;;;;;;;4.82;2.25;;;;;;;19.11;100.00;100783.28;4984487;28;20239;-73
2023/06/28 07:16:24;;;;;;;5.68;2.38;;;;;;;19.17;100.00;100789.38;4972924;28;20240;-73
2023/06/28 07:18:50;;;;;;;7.00;2.92;;;;;;;19.15;100.00;100755.47;4981523;28;20224;-73
2023/06/28 07:21:21;;;;;;;8.63;3.25;;;;;;;19.16;100.00;100749.19;4977234;28;20268;-73
2023/06/28 07:23:48;;;;;;;6.68;2.80;;;;;;;19.31;100.00;100758.72;4984208;28;20236;-73
2023/06/28 07:26:18;;;;;;;31.90;8.10;;;;;;;19.37;100.00;100740.69;4964128;28;20228;-73
2023/06/28 07:28:44;;;;;;;5.75;2.42;;;;;;;19.44;100.00;100725.34;4954794;28;20972;-73
2023/06/28 07:31:11;;;;;;;29.00;6.57;;;;;;;19.71;100.00;100758.78;4971040;28;20236;-73
2023/06/28 07:33:40;;;;;;;22.58;9.07;;;;;;;19.63;100.00;100723.19;4973621;28;20236;-73
2023/06/28 07:36:07;;;;;;;28.55;5.85;;;;;;;19.69;100.00;100694.41;4978224;28;20224;-73
2023/06/28 07:38:33;;;;;;;6.63;2.50;;;;;;;19.74;100.00;100679.06;4979686;28;20282;-73
2023/06/28 07:41:00;;;;;;;6.20;2.58;;;;;;;19.75;100.00;100669.22;4966846;28;20228;-72
2023/06/28 07:43:27;;;;;;;8.93;3.28;;;;;;;20.01;100.00;100704.34;4974345;28;20224;-73
2023/06/28 07:45:58;;;;;;;5.10;2.03;;;;;;;20.12;100.00;100701.38;4971177;28;20232;-76
2023/06/28 07:48:26;;;;;;;7.60;3.17;;;;;;;20.08;100.00;100663.00;4974147;28;20241;-73
2023/06/28 07:50:53;;;;;;;5.50;2.35;;;;;;;20.25;100.00;100667.03;4984258;28;20647;-72
2023/06/28 07:53:20;;;;;;;9.52;3.20;;;;;;;20.38;100.00;100698.00;4981225;28;20232;-73
2023/06/28 07:55:47;;;;;;;6.55;2.65;;;;;;;20.45;100.00;100668.28;4984152;28;20283;-73
2023/06/28 07:58:13;;;;;;;16.08;5.93;;;;;;;20.33;100.00;100644.41;4974631;28;20723;-73
2023/06/28 08:00:40;;;;;;;6.20;2.45;;;;;;;20.52;100.00;100666.31;4987534;28;20244;-73
2023/06/28 08:03:08;;;;;;;7.80;2.92;;;;;;;20.57;100.00;100642.00;4983923;28;20227;-73
2023/06/28 08:05:35;;;;;;;6.63;2.50;;;;;;;20.20;100.00;100577.66;4990922;28;20259;-73
2023/06/28 08:08:02;;;;;;;5.80;2.38;;;;;;;20.45;100.00;100579.63;4965011;28;20311;-74
2023/06/28 08:10:28;;;;;;;4.55;2.13;;;;;;;20.67;100.00;100592.44;4981349;28;20226;-72
2023/06/28 08:12:56;;;;;;;6.80;2.67;;;;;;;21.01;100.00;100603.06;4982319;28;20224;-73
2023/06/28 08:15:23;;;;;;;4.55;1.60;;;;;;;21.35;100.00;100609.16;5012384;23;20301;-76
2023/06/28 08:17:50;;;;;;;5.68;2.00;;;;;;;21.26;100.00;100581.69;5029216;28;20226;-78
2023/06/28 08:20:17;;;;;;;10.45;3.40;;;;;;;21.43;100.00;100576.63;5000532;28;20247;-76
2023/06/28 08:22:43;;;;;;;5.47;2.00;;;;;;;21.61;100.00;100567.03;5020641;28;20232;-77
2023/06/28 08:25:10;;;;;;;10.15;3.00;;;;;;;21.74;100.00;100528.00;5017502;28;20241;-77
2023/06/28 08:27:37;;;;;;;4.18;1.98;;;;;;;21.89;100.00;100532.84;5027615;28;20265;-77
2023/06/28 08:30:04;;;;;;;4.05;1.80;;;;;;;21.91;100.00;100487.00;5001629;28;20224;-77
2023/06/28 08:32:32;;;;;;;5.40;2.47;;;;;;;22.20;100.00;100478.78;5003484;28;20226;-77
2023/06/28 08:34:59;;;;;;;3.65;1.88;;;;;;;21.87;100.00;100385.75;4996965;28;20309;-77
2023/06/28 08:37:26;;;;;;;3.10;1.38;;;;;;;21.99;100.00;100379.91;5018544;28;20247;-77
2023/06/28 08:39:53;;;;;;;5.18;2.03;;;;;;;21.95;100.00;100367.50;5020256;28;20226;-79
2023/06/28 08:42:19;;;;;;;10.55;3.22;;;;;;;21.67;97.33;100266.28;5009374;28;20234;-79
2023/06/28 08:44:49;;;;;;;5.95;2.67;;;;;;;21.97;96.78;100291.09;5002334;28;20281;-77
2023/06/28 08:47:16;;;;;;;8.60;2.58;;;;;;;22.32;97.69;100323.88;5012373;28;20230;-77
2023/06/28 08:49:43;;;;;;;5.72;2.20;;;;;;;22.52;98.81;100340.09;5003613;28;20230;-82
2023/06/28 08:52:10;;;;;;;11.95;3.83;;;;;;;22.84;94.86;100301.03;5001585;28;20238;-80
2023/06/28 08:54:37;;;;;;;4.88;1.95;;;;;;;22.37;96.81;100240.16;5009301;28;20294;-80
2023/06/28 08:57:04;;;;;;;7.15;2.80;;;;;;;22.80;95.36;100274.25;5005103;28;20226;-78
2023/06/28 08:59:39;;;;;;;5.97;2.60;;;;;;;22.71;94.45;100242.28;5022326;28;20229;-77
2023/06/28 09:02:08;;;;;;;5.82;2.20;;;;;;;22.77;98.07;100272.53;5012845;28;20227;-78
2023/06/28 09:04:35;;;;;;;4.60;1.77;;;;;;;23.56;94.81;100295.13;5016413;28;20703;-78
2023/06/28 09:07:02;;;;;;;4.60;2.20;;;;;;;23.13;91.41;100183.72;5020624;28;20593;-85
2023/06/28 09:09:30;;;;;;;2.67;1.30;;;;;;;22.74;87.38;100086.66;5005554;28;20241;-77
2023/06/28 09:11:57;;;;;;;4.57;1.75;;;;;;;23.21;91.42;100188.78;5006895;28;20598;-77
2023/06/28 09:14:23;;;;;;;5.05;2.15;;;;;;;22.96;89.90;100117.09;5013689;28;20298;-78
2023/06/28 09:16:50;;;;;;;4.47;1.90;;;;;;;23.11;86.28;100072.34;5021410;28;20313;-78
2023/06/28 09:19:17;;;;;;;7.00;2.33;;;;;;;23.43;86.37;100113.97;5018268;28;20257;-77
2023/06/28 09:21:45;;;;;;;4.88;1.90;;;;;;;23.53;80.55;100023.50;5022319;28;20655;-78
2023/06/28 09:24:13;;;;;;;6.07;1.98;;;;;;;24.10;81.28;100069.22;5017306;28;20245;-78
2023/06/28 09:26:43;;;;;;;4.28;1.77;;;;;;;23.93;78.16;99991.78;5021034;28;20241;-77
2023/06/28 09:29:12;;;;;;;5.30;1.95;;;;;;;24.20;80.66;100020.00;5015526;28;20235;-77
2023/06/28 09:31:40;;;;;;;4.20;1.70;;;;;;;24.61;82.81;100072.81;5006454;28;20223;-76
2023/06/28 09:34:08;;;;;;;9.13;2.58;;;;;;;24.67;78.75;99997.66;5017738;28;20235;-77
2023/06/28 09:36:37;;;;;;;5.95;2.45;;;;;;;24.59;84.09;100016.13;5032296;28;20229;-78
2023/06/28 09:39:04;;;;;;;4.80;1.75;;;;;;;24.40;79.08;99921.66;5017946;28;20238;-77
2023/06/28 09:41:39;;;;;;;3.67;1.60;;;;;;;24.68;76.75;99918.28;5009241;28;20280;-79
2023/06/28 09:44:10;;;;;;;6.45;2.22;;;;;;;23.73;80.55;99828.13;5026152;28;20226;-77
2023/06/28 09:46:46;;;;;;;3.33;1.50;;;;;;;24.29;75.88;99844.88;5021070;28;20229;-78
2023/06/28 09:49:20;;;;;;;6.68;2.97;;;;;;;24.76;76.61;99891.69;5025783;28;20245;-77
2023/06/28 09:52:03;;;;;;;4.63;1.70;;;;;;;24.86;73.90;99854.16;5027175;28;20233;-78
2023/06/28 09:54:44;;;;;;;8.70;2.78;;;;;;;24.87;73.06;99818.91;5013337;28;20324;-79
2023/06/28 09:57:12;;;;;;;9.32;3.08;;;;;;;25.40;70.80;99852.72;5017480;28;20240;-79
2023/06/28 09:59:39;;;;;;;4.75;1.95;;;;;;;24.93;66.75;99681.56;5020505;28;20218;-79
2023/06/28 10:02:07;;;;;;;14.00;4.63;;;;;;;25.55;73.28;99833.78;5014597;28;20234;-78
2023/06/28 10:04:36;;;;;;;7.32;2.75;;;;;;;25.25;69.02;99715.63;5001320;28;20677;-79
2023/06/28 10:07:05;;;;;;;5.70;1.98;;;;;;;25.75;70.10;99795.53;5016659;28;20699;-77
2023/06/28 10:09:34;;;;;;;6.20;2.28;;;;;;;25.17;68.56;99667.41;5018731;28;20295;-78
2023/06/28 10:12:14;;;;;;;3.70;1.50;;;;;;;25.61;69.99;99716.97;5009382;28;20226;-78
2023/06/28 10:14:45;;;;;;;5.70;2.20;;;;;;;25.64;67.59;99671.59;4960767;28;1419979;-77
2023/06/28 10:17:12;;;;;;;13.13;3.45;;;;;;;25.51;69.60;99679.66;4995265;28;20234;-77
2023/06/28 10:19:39;;;;;;;7.10;2.60;;;;;;;25.67;65.27;99624.53;5004869;28;20227;-77
2023/06/28 10:22:06;;;;;;;9.40;3.13;;;;;;;25.01;64.71;99520.56;4999557;28;20230;-80
2023/06/28 10:24:35;;;;;;;4.25;1.63;;;;;;;25.54;66.70;99621.72;5003152;28;20601;-76
2023/06/28 10:27:03;;;;;;;6.82;2.72;;;;;;;27.00;66.48;99762.84;5014222;28;20234;-76
2023/06/28 10:29:31;;;;;;;6.70;2.28;;;;;;;27.44;64.62;99748.03;4992981;28;20230;-77
2023/06/28 10:31:58;;;;;;;5.55;2.25;;;;;;;26.59;63.36;99595.69;5004382;28;20229;-76
2023/06/28 10:34:26;;;;;;;4.75;2.10;;;;;;;25.68;61.82;99434.88;5087776;23;20238;-79
2023/06/28 10:36:53;;;;;;;4.60;1.80;;;;;;;26.18;68.46;99612.06;5016001;28;20234;-79
2023/06/28 10:39:19;;;;;;;40.00;6.70;;;;;;;25.93;61.74;99481.94;4999488;28;20227;-78
2023/06/28 10:41:46;;;;;;;10.20;3.42;;;;;;;25.38;66.29;99473.00;4994134;28;20238;-78
2023/06/28 10:44:13;;;;;;;43.88;8.13;;;;;;;25.36;65.02;99464.13;5006564;28;20223;-78
2023/06/28 10:46:39;;;;;;;6.03;2.28;;;;;;;25.36;66.30;99469.53;4995497;28;20234;-78
2023/06/28 10:49:07;;;;;;;10.15;3.13;;;;;;;25.90;64.50;99528.19;4946252;28;20232;-79
2023/06/28 10:51:36;;;;;;;3.97;1.77;;;;;;;25.96;62.46;99477.19;4961096;28;20330;-76
2023/06/28 10:54:12;;;;;;;5.72;2.45;;;;;;;25.95;65.64;99515.22;4929131;28;20231;-80
2023/06/28 10:56:50;;;;;;;3.72;1.60;;;;;;;26.41;63.81;99543.63;4940648;28;20282;-76
2023/06/28 10:59:17;;;;;;;7.32;2.53;;;;;;;27.32;60.94;99581.44;5008800;28;20226;-79
2023/06/28 11:01:51;;;;;;;4.60;1.98;;;;;;;26.87;64.83;99563.88;5010239;28;20240;-75
2023/06/28 11:04:23;;;;;;;4.25;1.65;;;;;;;26.75;60.93;99486.97;5009377;28;20285;-77
2023/06/28 11:07:20;;;;;;;4.13;2.15;;;;;;;26.42;66.10;99509.25;5015692;28;20241;-78
2023/06/28 11:10:14;;;;;;;4.80;2.15;;;;;;;25.95;65.37;99455.63;5012427;28;20225;-79
2023/06/28 11:12:41;;;;;;;5.80;2.70;;;;;;;26.11;69.07;99521.34;5001882;28;20232;-75
2023/06/28 11:15:12;;;;;;;5.53;2.42;;;;;;;26.88;64.53;99555.63;5000119;28;20309;-79
2023/06/28 11:17:39;;;;;;;2.65;1.30;;;;;;;25.93;63.59;99409.66;5015028;28;20244;-76
2023/06/28 11:20:07;;;;;;;4.68;2.15;;;;;;;26.59;62.93;99495.34;5014704;28;20313;-77
2023/06/28 11:22:51;;;;;;;3.95;2.00;;;;;;;26.06;65.71;99447.63;5004825;28;20715;-78